Buffalo Gap, Texas
Current Conditions -  °F | °C
As of 9:58 PM on Sunday 19 Oct 2014 (Local Time) from KDYS Reporting Station
Clear Clear  
Wind Chill: 71°   Ceiling: Unl
Heat Index: 71°   Visibility: 10mi
Dew Point: 59°   Wind: 13mph
Humidity: 66%   Direction: 150°SSE
Pressure: 30.04"   Gusts: NA
Location:  32.28°N, 99.83°W
Report Text: KDYS 200258Z AUTO 15011KT 10SM CLR 21/15 A3004 RMK AO2 SLP141 T02140148 52005
Loading
Personal Weather Stations






























Interactive Weather Map
Tropical Storm Tracking
New forecast layout! Learn more

10-Day Weather Forecast

Advertisements
Track Severe Weather on mobile